Time;durP1;ratioP1;P1;durP2;ratioP2;P2;SDS_P1;SDS_P2;PMS_P1;PMS_P2;Temp;Humidity;BMP_temperature;BMP_pressure;BME280_temperature;BME280_humidity;BME280_pressure;Samples;Min_cycle;Max_cycle;Signal;HPM_P1;HPM_P2
2022/08/02 00:01:20;;;;;;;4.30;3.90;;;19.30;99.90;;;;;;5026261;28;20225;-66
2022/08/02 00:03:45;;;;;;;5.27;4.77;;;19.30;99.90;;;;;;5028115;28;20662;-65
2022/08/02 00:06:11;;;;;;;4.70;4.27;;;19.30;99.90;;;;;;5027605;28;20198;-65
2022/08/02 00:08:37;;;;;;;4.20;3.90;;;19.30;99.90;;;;;;5031666;28;20232;-65
2022/08/02 00:11:02;;;;;;;4.07;3.77;;;19.30;99.90;;;;;;5032240;28;20213;-65
2022/08/02 00:13:28;;;;;;;4.33;4.03;;;19.30;99.90;;;;;;5033525;28;20174;-65
2022/08/02 00:15:53;;;;;;;4.03;3.73;;;19.30;99.90;;;;;;5025851;28;20203;-65
2022/08/02 00:18:19;;;;;;;4.60;4.20;;;19.30;99.90;;;;;;5031056;28;20248;-65
2022/08/02 00:20:44;;;;;;;5.03;4.50;;;19.30;99.90;;;;;;5032711;28;20214;-65
2022/08/02 00:23:10;;;;;;;4.27;3.93;;;19.30;99.90;;;;;;5026137;28;20235;-65
2022/08/02 00:25:35;;;;;;;5.83;5.43;;;19.30;99.90;;;;;;5027541;28;20209;-65
2022/08/02 00:28:01;;;;;;;5.57;5.17;;;19.30;99.90;;;;;;5033424;28;20295;-65
2022/08/02 00:30:26;;;;;;;6.17;5.63;;;19.30;99.90;;;;;;5030719;28;20224;-65
2022/08/02 00:32:52;;;;;;;5.17;4.83;;;19.30;99.90;;;;;;5032638;28;20186;-65
2022/08/02 00:35:17;;;;;;;5.10;4.80;;;19.20;99.90;;;;;;5031703;28;20240;-65
2022/08/02 00:37:43;;;;;;;6.50;6.00;;;19.10;99.90;;;;;;5026039;28;20201;-65
2022/08/02 00:40:09;;;;;;;6.70;4.80;;;19.10;99.90;;;;;;5031046;28;20280;-65
2022/08/02 00:42:35;;;;;;;5.47;4.37;;;19.10;99.90;;;;;;5028995;28;20262;-65
2022/08/02 00:45:01;;;;;;;4.80;4.40;;;19.10;99.90;;;;;;5027289;28;20548;-66
2022/08/02 00:47:26;;;;;;;4.83;4.50;;;19.20;99.90;;;;;;5032623;28;20605;-65
2022/08/02 00:49:52;;;;;;;4.30;4.00;;;19.20;99.90;;;;;;5031244;28;20266;-65
2022/08/02 00:52:17;;;;;;;4.90;4.50;;;19.20;99.90;;;;;;5032344;28;20273;-65
2022/08/02 00:54:43;;;;;;;4.87;4.20;;;19.10;99.90;;;;;;5026446;28;20210;-65
2022/08/02 00:57:08;;;;;;;4.67;3.90;;;19.10;99.90;;;;;;5029769;28;20170;-65
2022/08/02 00:59:34;;;;;;;4.10;3.80;;;19.10;99.90;;;;;;5028151;28;20631;-65
2022/08/02 01:01:59;;;;;;;4.63;4.33;;;19.10;99.90;;;;;;5032784;28;20206;-65
2022/08/02 01:04:26;;;;;;;4.40;4.00;;;19.10;99.90;;;;;;5031970;28;20667;-65
2022/08/02 01:06:51;;;;;;;3.93;3.70;;;19.20;99.90;;;;;;5032774;28;20178;-65
2022/08/02 01:09:17;;;;;;;4.20;3.90;;;19.20;99.90;;;;;;5025340;28;20429;-65
2022/08/02 01:11:42;;;;;;;5.90;5.47;;;19.20;99.90;;;;;;5032558;28;20257;-65
2022/08/02 01:14:11;;;;;;;3.77;3.57;;;19.20;99.90;;;;;;5031206;28;20181;-65
2022/08/02 01:16:57;;;;;;;4.27;3.87;;;19.20;99.90;;;;;;5032531;28;20197;-65
2022/08/02 01:19:48;;;;;;;3.73;3.50;;;19.10;99.90;;;;;;5029338;28;20432;-65
2022/08/02 01:22:47;;;;;;;3.97;3.67;;;19.10;99.90;;;;;;5031394;28;20489;-65
2022/08/02 01:25:25;;;;;;;3.20;3.00;;;19.00;99.90;;;;;;5021183;28;20449;-65
2022/08/02 01:28:31;;;;;;;5.17;3.50;;;19.00;99.90;;;;;;5032044;28;20956;-65
2022/08/02 01:31:06;;;;;;;3.90;3.60;;;19.00;99.90;;;;;;5031475;28;20436;-65
2022/08/02 01:33:39;;;;;;;3.27;3.03;;;19.00;99.90;;;;;;5029484;28;20518;-65
2022/08/02 01:36:10;;;;;;;3.70;3.40;;;19.00;99.90;;;;;;5028372;28;20531;-65
2022/08/02 01:38:43;;;;;;;3.60;3.30;;;19.10;99.90;;;;;;5022847;28;20535;-65
2022/08/02 01:41:14;;;;;;;3.27;3.07;;;19.10;99.90;;;;;;5029206;28;20468;-65
2022/08/02 01:43:42;;;;;;;3.60;3.40;;;19.10;99.90;;;;;;5030293;28;20495;-65
2022/08/02 01:46:09;;;;;;;2.90;2.70;;;19.00;99.90;;;;;;5031542;28;20551;-65
2022/08/02 01:48:36;;;;;;;3.13;2.93;;;19.00;99.90;;;;;;5030623;28;20436;-65
2022/08/02 01:51:03;;;;;;;3.40;3.20;;;19.00;99.90;;;;;;5032122;28;20514;-65
2022/08/02 01:53:30;;;;;;;3.43;3.13;;;19.00;99.90;;;;;;5029205;28;20952;-65
2022/08/02 01:55:58;;;;;;;3.00;2.80;;;19.00;99.90;;;;;;5027370;28;20480;-65
2022/08/02 01:58:26;;;;;;;3.23;3.03;;;19.00;99.90;;;;;;5031011;28;20444;-65
2022/08/02 02:00:55;;;;;;;5.00;3.63;;;19.00;99.90;;;;;;5029588;28;20500;-65
2022/08/02 02:03:23;;;;;;;2.93;2.73;;;19.00;99.90;;;;;;5031793;28;20440;-65
2022/08/02 02:05:51;;;;;;;4.33;3.90;;;18.90;99.90;;;;;;5010890;28;20457;-65
2022/08/02 02:08:22;;;;;;;3.40;3.10;;;18.90;99.90;;;;;;5027489;28;20433;-65
2022/08/02 02:10:49;;;;;;;4.10;3.50;;;18.90;99.90;;;;;;5032231;28;20484;-65
2022/08/02 02:13:17;;;;;;;3.00;2.80;;;18.90;99.90;;;;;;5026933;28;20455;-65
2022/08/02 02:15:46;;;;;;;6.70;3.23;;;19.00;99.90;;;;;;5022717;28;21000;-65
2022/08/02 02:18:23;;;;;;;3.63;3.33;;;18.90;99.90;;;;;;5022799;28;20808;-65
2022/08/02 02:20:48;;;;;;;3.60;3.30;;;18.90;99.90;;;;;;5032125;28;20957;-65
2022/08/02 02:23:16;;;;;;;2.90;2.70;;;18.90;99.90;;;;;;5026354;28;20456;-65
2022/08/02 02:25:42;;;;;;;2.90;2.67;;;18.90;99.90;;;;;;5031018;28;20201;-65
2022/08/02 02:28:11;;;;;;;3.23;3.03;;;19.10;99.90;;;;;;5025954;28;20494;-65
2022/08/02 02:30:40;;;;;;;3.67;3.37;;;18.90;99.90;;;;;;5026185;28;20440;-65
2022/08/02 02:33:07;;;;;;;6.90;3.20;;;18.80;99.90;;;;;;5024504;28;20437;-65
2022/08/02 02:35:36;;;;;;;3.70;3.03;;;18.80;99.90;;;;;;5025272;28;20482;-65
2022/08/02 02:38:04;;;;;;;4.23;3.93;;;18.70;99.90;;;;;;5028795;28;20942;-65
2022/08/02 02:40:31;;;;;;;3.60;3.33;;;18.70;99.90;;;;;;5030650;28;20496;-65
2022/08/02 02:43:00;;;;;;;3.60;3.30;;;18.70;99.90;;;;;;5024918;28;20441;-65
2022/08/02 02:45:29;;;;;;;3.97;3.37;;;18.70;99.90;;;;;;5031113;28;20492;-65
2022/08/02 02:47:55;;;;;;;3.27;3.07;;;18.60;99.90;;;;;;5029722;28;20938;-65
2022/08/02 02:50:23;;;;;;;3.90;3.60;;;18.50;99.90;;;;;;5030479;28;20532;-65
2022/08/02 02:52:49;;;;;;;3.77;3.40;;;18.50;99.90;;;;;;5030854;28;20499;-65
2022/08/02 02:55:16;;;;;;;4.47;3.87;;;18.50;99.90;;;;;;5019344;28;20465;-65
2022/08/02 02:57:42;;;;;;;3.37;3.17;;;18.50;99.90;;;;;;5029310;28;20528;-65
2022/08/02 03:00:10;;;;;;;4.67;3.20;;;18.50;99.90;;;;;;5030197;28;20448;-65
2022/08/02 03:02:41;;;;;;;3.37;3.17;;;18.40;99.90;;;;;;5026849;28;20429;-65
2022/08/02 03:05:09;;;;;;;5.57;4.20;;;18.30;99.90;;;;;;5026866;28;20453;-65
2022/08/02 03:07:35;;;;;;;4.07;3.50;;;18.30;99.90;;;;;;5030219;28;20858;-65
2022/08/02 03:10:05;;;;;;;3.37;3.17;;;18.30;99.90;;;;;;5012394;28;20445;-65
2022/08/02 03:12:32;;;;;;;3.40;3.20;;;18.30;99.90;;;;;;5021967;28;20439;-65
2022/08/02 03:15:00;;;;;;;3.87;3.57;;;18.20;99.90;;;;;;5027165;28;20457;-65
2022/08/02 03:17:37;;;;;;;4.20;3.10;;;18.30;99.90;;;;;;5030244;28;20519;-65
2022/08/02 03:20:07;;;;;;;4.53;3.43;;;18.10;99.90;;;;;;5029468;28;20440;-65
2022/08/02 03:22:33;;;;;;;3.20;2.90;;;18.10;99.90;;;;;;5028377;28;20840;-65
2022/08/02 03:24:58;;;;;;;4.30;3.50;;;18.00;99.90;;;;;;5031283;28;20452;-65
2022/08/02 03:27:24;;;;;;;3.40;3.10;;;18.00;99.90;;;;;;5032335;28;20182;-65
2022/08/02 03:29:49;;;;;;;5.50;3.07;;;18.00;99.90;;;;;;5033603;28;20601;-65
2022/08/02 03:32:15;;;;;;;3.37;3.07;;;18.00;99.90;;;;;;5030368;28;20277;-65
2022/08/02 03:34:40;;;;;;;4.50;3.10;;;17.90;99.90;;;;;;5034735;28;20220;-65
2022/08/02 03:37:06;;;;;;;3.73;3.30;;;17.90;99.90;;;;;;5034543;28;20537;-65
2022/08/02 03:39:32;;;;;;;3.50;3.20;;;17.90;99.90;;;;;;5030684;28;20193;-65
2022/08/02 03:41:58;;;;;;;3.83;3.60;;;17.80;99.90;;;;;;5017573;28;20202;-65
2022/08/02 03:44:25;;;;;;;3.23;2.93;;;17.80;99.90;;;;;;5034773;28;20464;-65
2022/08/02 03:46:51;;;;;;;3.60;3.40;;;17.80;99.90;;;;;;5030309;28;20174;-65
2022/08/02 03:49:17;;;;;;;4.53;3.50;;;17.80;99.90;;;;;;5033959;28;20494;-65
2022/08/02 03:51:44;;;;;;;3.37;3.07;;;17.90;99.90;;;;;;5031393;28;20444;-65
2022/08/02 03:54:10;;;;;;;4.00;3.70;;;17.80;99.90;;;;;;5025139;28;20442;-65
2022/08/02 03:56:36;;;;;;;4.13;3.73;;;17.80;99.90;;;;;;5032830;28;20437;-65
2022/08/02 03:59:10;;;;;;;4.00;3.60;;;17.80;99.90;;;;;;5033574;28;20448;-65
2022/08/02 04:01:35;;;;;;;3.37;3.07;;;17.80;99.90;;;;;;5029536;28;20213;-65
2022/08/02 04:04:01;;;;;;;4.20;3.70;;;17.80;99.90;;;;;;5030415;28;20441;-65
2022/08/02 04:06:27;;;;;;;4.10;3.70;;;17.80;99.90;;;;;;5030811;28;20833;-65
2022/08/02 04:08:52;;;;;;;4.07;3.67;;;17.80;99.90;;;;;;5032372;28;20189;-65
2022/08/02 04:11:30;;;;;;;3.50;3.27;;;17.80;99.90;;;;;;5031732;28;20178;-65
2022/08/02 04:13:57;;;;;;;3.30;2.80;;;17.80;99.90;;;;;;5031498;28;20544;-65
2022/08/02 04:16:32;;;;;;;3.90;3.23;;;17.80;99.90;;;;;;5032734;28;20443;-65
2022/08/02 04:19:02;;;;;;;4.40;4.10;;;17.70;99.90;;;;;;5032880;28;21154;-65
2022/08/02 04:21:32;;;;;;;3.80;3.53;;;17.80;99.90;;;;;;5032028;28;20464;-65
2022/08/02 04:24:01;;;;;;;4.30;3.80;;;17.80;99.90;;;;;;5032991;28;20433;-65
2022/08/02 04:26:27;;;;;;;4.10;3.57;;;17.90;99.90;;;;;;5031731;28;20565;-65
2022/08/02 04:28:53;;;;;;;4.67;3.40;;;18.00;99.90;;;;;;5033638;28;20429;-65
2022/08/02 04:31:20;;;;;;;3.17;2.97;;;18.10;99.90;;;;;;5033945;28;20439;-65
2022/08/02 04:33:46;;;;;;;3.70;3.50;;;18.30;99.90;;;;;;5033555;28;20476;-65
2022/08/02 04:36:13;;;;;;;5.93;3.77;;;18.40;99.90;;;;;;5032427;28;20475;-65
2022/08/02 04:38:40;;;;;;;4.70;4.20;;;18.40;99.90;;;;;;5020997;28;20438;-65
2022/08/02 04:41:05;;;;;;;3.70;3.40;;;18.50;99.90;;;;;;5024997;28;20469;-65
2022/08/02 04:43:31;;;;;;;4.53;4.17;;;18.60;99.90;;;;;;5028003;28;20436;-65
2022/08/02 04:45:56;;;;;;;5.30;4.80;;;18.70;99.90;;;;;;5032048;28;20198;-65
2022/08/02 04:48:23;;;;;;;4.50;4.10;;;18.70;99.90;;;;;;5031238;28;20170;-65
2022/08/02 04:50:49;;;;;;;5.03;4.63;;;18.80;99.90;;;;;;5011167;28;20245;-65
2022/08/02 04:53:15;;;;;;;4.97;4.50;;;18.90;99.90;;;;;;5027255;28;20555;-65
2022/08/02 04:55:40;;;;;;;3.70;3.40;;;18.90;99.90;;;;;;5027640;28;20464;-65
2022/08/02 04:58:06;;;;;;;4.17;3.60;;;19.10;99.90;;;;;;5023671;28;20190;-65
2022/08/02 05:00:31;;;;;;;4.90;3.33;;;19.20;99.90;;;;;;5031819;28;20256;-65
2022/08/02 05:02:58;;;;;;;3.70;3.50;;;19.30;99.90;;;;;;5010094;28;20183;-65
2022/08/02 05:05:24;;;;;;;3.37;3.07;;;19.40;99.90;;;;;;5032288;28;20198;-64
2022/08/02 05:07:50;;;;;;;4.90;3.30;;;19.50;99.90;;;;;;5032002;28;21020;-65
2022/08/02 05:10:15;;;;;;;3.70;3.40;;;19.50;99.90;;;;;;5031422;28;20433;-65
2022/08/02 05:12:41;;;;;;;4.77;3.60;;;19.60;99.90;;;;;;5031331;28;20233;-65
2022/08/02 05:15:10;;;;;;;4.10;3.70;;;19.70;99.90;;;;;;5031808;28;20707;-65
2022/08/02 05:17:35;;;;;;;3.73;3.53;;;19.80;99.90;;;;;;5029990;28;20682;-65
2022/08/02 05:20:01;;;;;;;5.23;3.47;;;19.90;99.90;;;;;;5030915;28;20437;-65
2022/08/02 05:22:26;;;;;;;4.00;3.20;;;19.90;99.90;;;;;;5031447;28;20186;-65
2022/08/02 05:24:52;;;;;;;3.20;3.00;;;20.10;99.90;;;;;;5030577;28;20218;-65
2022/08/02 05:27:17;;;;;;;4.73;4.33;;;20.20;99.90;;;;;;5031800;28;20563;-65
2022/08/02 05:29:43;;;;;;;3.77;3.47;;;20.40;99.90;;;;;;5029678;28;20186;-65
2022/08/02 05:32:08;;;;;;;4.20;3.80;;;20.70;99.90;;;;;;5027383;28;20552;-62
2022/08/02 05:34:34;;;;;;;4.00;3.70;;;20.90;99.90;;;;;;5025910;28;20275;-62
2022/08/02 05:36:59;;;;;;;3.80;3.50;;;21.00;99.90;;;;;;5030717;28;20186;-62
2022/08/02 05:39:25;;;;;;;6.50;3.60;;;21.20;99.90;;;;;;5029687;28;20201;-62
2022/08/02 05:41:50;;;;;;;5.37;3.33;;;21.30;99.90;;;;;;5028482;28;20213;-63
2022/08/02 05:44:16;;;;;;;3.17;2.97;;;21.50;99.90;;;;;;5030738;28;20224;-62
2022/08/02 05:46:41;;;;;;;3.70;3.40;;;21.70;99.90;;;;;;5029457;28;20384;-63
2022/08/02 05:49:07;;;;;;;4.07;3.77;;;21.80;99.90;;;;;;5027695;28;20178;-63
2022/08/02 05:51:58;;;;;;;4.73;4.20;;;22.00;99.90;;;;;;5020510;28;20224;-62
2022/08/02 05:54:45;;;;;;;4.87;3.67;;;22.10;99.90;;;;;;5029482;28;20233;-63
2022/08/02 05:57:23;;;;;;;5.43;4.30;;;22.30;99.90;;;;;;5022197;28;20440;-63
2022/08/02 06:00:06;;;;;;;3.93;3.50;;;22.30;99.90;;;;;;5029837;28;20436;-63
2022/08/02 06:02:53;;;;;;;3.70;3.40;;;22.20;99.90;;;;;;5026367;28;20491;-63
2022/08/02 06:05:20;;;;;;;5.83;3.17;;;22.00;99.90;;;;;;5026785;28;20961;-63
2022/08/02 06:07:47;;;;;;;5.30;4.03;;;21.90;99.90;;;;;;5028597;28;20528;-63
2022/08/02 06:10:14;;;;;;;3.43;3.23;;;21.90;99.90;;;;;;5029561;28;20435;-63
2022/08/02 06:12:49;;;;;;;3.50;3.30;;;22.00;99.90;;;;;;5028658;28;20516;-63
2022/08/02 06:15:17;;;;;;;4.93;4.47;;;22.10;99.90;;;;;;5027737;28;20448;-63
2022/08/02 06:17:43;;;;;;;5.70;3.43;;;22.10;99.90;;;;;;5029448;28;20802;-62
2022/08/02 06:20:13;;;;;;;4.03;3.40;;;22.30;99.90;;;;;;5027671;28;20444;-61
2022/08/02 06:22:42;;;;;;;4.90;4.50;;;22.40;99.90;;;;;;5025233;28;20433;-61
2022/08/02 06:25:09;;;;;;;4.33;3.93;;;22.50;99.90;;;;;;5027825;28;20452;-63
2022/08/02 06:27:36;;;;;;;4.03;3.73;;;22.70;99.90;;;;;;5029043;28;20482;-63
2022/08/02 06:30:03;;;;;;;3.90;3.60;;;22.90;99.90;;;;;;5027170;28;20471;-62
2022/08/02 06:32:30;;;;;;;4.40;4.00;;;23.10;99.90;;;;;;5027665;28;20460;-62
2022/08/02 06:34:56;;;;;;;4.83;4.20;;;23.30;99.90;;;;;;5027823;28;20533;-63
2022/08/02 06:37:33;;;;;;;4.73;4.00;;;23.40;99.90;;;;;;5029034;28;21210;-63
2022/08/02 06:40:32;;;;;;;3.47;3.17;;;23.50;99.90;;;;;;5025778;28;20651;-62
2022/08/02 06:43:12;;;;;;;5.43;4.07;;;23.50;99.90;;;;;;4971683;28;20454;-63
2022/08/02 06:45:38;;;;;;;4.13;3.93;;;23.70;99.90;;;;;;5027497;28;20456;-62
2022/08/02 06:48:04;;;;;;;6.30;5.07;;;23.70;99.90;;;;;;5028379;28;20796;-62
2022/08/02 06:50:30;;;;;;;5.07;4.67;;;23.50;99.90;;;;;;5026162;28;20436;-62
2022/08/02 06:52:56;;;;;;;4.10;3.80;;;23.70;99.90;;;;;;5028718;28;20437;-62
2022/08/02 06:55:21;;;;;;;5.00;4.10;;;23.80;99.90;;;;;;5027038;28;20233;-63
2022/08/02 06:57:47;;;;;;;4.43;4.07;;;23.80;99.90;;;;;;5028640;28;20220;-63
2022/08/02 07:00:13;;;;;;;3.77;3.50;;;24.10;99.90;;;;;;5027180;28;20265;-62
2022/08/02 07:02:39;;;;;;;5.07;4.57;;;24.30;99.90;;;;;;5029626;28;20175;-62
2022/08/02 07:05:07;;;;;;;4.90;3.97;;;24.60;99.90;;;;;;5032628;28;20510;-63
2022/08/02 07:07:33;;;;;;;5.00;4.50;;;24.80;99.90;;;;;;5024518;28;20190;-62
2022/08/02 07:09:59;;;;;;;6.37;5.83;;;25.00;99.90;;;;;;5031657;28;21160;-63
2022/08/02 07:12:25;;;;;;;4.90;4.50;;;25.10;99.90;;;;;;5032406;28;20178;-63
2022/08/02 07:14:51;;;;;;;4.60;4.20;;;25.20;99.90;;;;;;5031811;28;20467;-63
2022/08/02 07:17:17;;;;;;;3.70;3.40;;;25.30;99.90;;;;;;5030162;28;20309;-62
2022/08/02 07:19:43;;;;;;;7.30;4.30;;;25.50;99.90;;;;;;5030767;28;20453;-63
2022/08/02 07:22:08;;;;;;;4.50;4.10;;;25.20;99.90;;;;;;5032344;28;20286;-62
2022/08/02 07:24:34;;;;;;;4.93;4.53;;;25.40;99.90;;;;;;5031018;28;20200;-63
2022/08/02 07:27:00;;;;;;;5.50;5.00;;;25.70;99.90;;;;;;5030068;28;20206;-63
2022/08/02 07:29:25;;;;;;;5.00;4.60;;;25.70;99.90;;;;;;5031748;28;20170;-62
2022/08/02 07:31:51;;;;;;;5.30;4.80;;;25.90;99.90;;;;;;5032402;28;20178;-63
2022/08/02 07:34:16;;;;;;;4.60;4.30;;;26.00;99.90;;;;;;5030959;28;20213;-63
2022/08/02 07:36:42;;;;;;;5.30;4.60;;;26.30;99.90;;;;;;5028944;28;20605;-63
2022/08/02 07:39:07;;;;;;;4.30;3.90;;;26.70;99.90;;;;;;5028765;28;20186;-63
2022/08/02 07:41:33;;;;;;;4.60;4.30;;;27.00;99.90;;;;;;5030563;28;20202;-63
2022/08/02 07:43:59;;;;;;;5.67;5.00;;;27.30;99.90;;;;;;5032048;28;20170;-63
2022/08/02 07:46:24;;;;;;;4.70;4.40;;;27.60;99.90;;;;;;5030244;28;20435;-61
2022/08/02 07:48:53;;;;;;;4.47;4.07;;;27.70;99.90;;;;;;5025959;28;20201;-63
2022/08/02 07:51:19;;;;;;;4.57;4.00;;;27.70;99.90;;;;;;5014271;28;20186;-63
2022/08/02 07:53:45;;;;;;;8.90;8.20;;;27.90;99.90;;;;;;5031893;28;20531;-63
2022/08/02 07:56:10;;;;;;;4.20;3.83;;;28.10;99.90;;;;;;5030604;28;20552;-63
2022/08/02 07:58:36;;;;;;;6.00;5.60;;;28.20;99.90;;;;;;5030925;28;20240;-63
2022/08/02 08:01:01;;;;;;;5.10;4.50;;;28.30;99.90;;;;;;5030604;28;20214;-63
2022/08/02 08:03:27;;;;;;;5.20;4.80;;;28.60;99.90;;;;;;5029485;28;20261;-63
2022/08/02 08:05:53;;;;;;;4.40;4.00;;;28.80;99.80;;;;;;5030397;28;20249;-63
2022/08/02 08:08:19;;;;;;;4.90;4.20;;;29.00;99.20;;;;;;5029247;28;20938;-62
2022/08/02 08:10:45;;;;;;;5.23;4.60;;;29.10;98.90;;;;;;5030129;28;20190;-63
2022/08/02 08:13:11;;;;;;;5.03;4.63;;;28.80;98.60;;;;;;5028713;28;20194;-62
2022/08/02 08:15:37;;;;;;;3.97;3.67;;;28.60;98.70;;;;;;5031145;28;20465;-64
2022/08/02 08:18:02;;;;;;;4.70;3.90;;;28.80;98.80;;;;;;5031401;28;20185;-63
2022/08/02 08:20:28;;;;;;;5.00;4.60;;;29.00;98.30;;;;;;5029027;28;20687;-61
2022/08/02 08:22:53;;;;;;;6.23;4.53;;;29.20;97.90;;;;;;5030191;28;20445;-63
2022/08/02 08:25:19;;;;;;;4.43;4.03;;;29.60;97.00;;;;;;5030442;28;20284;-63
2022/08/02 08:27:48;;;;;;;4.47;4.07;;;29.60;96.30;;;;;;5030093;28;20182;-62
2022/08/02 08:30:15;;;;;;;4.93;4.53;;;29.40;96.40;;;;;;5030789;28;20166;-63
2022/08/02 08:32:40;;;;;;;8.30;5.80;;;29.80;95.80;;;;;;5030697;28;20476;-63
2022/08/02 08:35:07;;;;;;;5.10;4.70;;;29.90;95.00;;;;;;5030010;28;20554;-61
2022/08/02 08:37:34;;;;;;;5.47;4.97;;;29.60;94.90;;;;;;5028792;28;20253;-63
2022/08/02 08:39:59;;;;;;;4.83;4.53;;;29.30;95.10;;;;;;5030785;28;20440;-64
2022/08/02 08:42:26;;;;;;;5.87;5.37;;;28.70;95.60;;;;;;5027461;28;20468;-63
2022/08/02 08:44:51;;;;;;;5.70;5.20;;;27.90;96.60;;;;;;5028601;28;20213;-63
2022/08/02 08:47:18;;;;;;;6.63;5.57;;;27.10;98.20;;;;;;5029988;28;20433;-63
2022/08/02 08:49:46;;;;;;;5.70;5.30;;;26.60;99.30;;;;;;5029361;28;20255;-63
2022/08/02 08:52:14;;;;;;;6.00;5.43;;;26.50;99.60;;;;;;5030945;28;20451;-63
2022/08/02 08:54:42;;;;;;;7.20;5.90;;;27.00;99.40;;;;;;5029131;28;20525;-63
2022/08/02 08:57:09;;;;;;;5.33;4.93;;;27.30;98.20;;;;;;5027129;28;20449;-63
2022/08/02 08:59:34;;;;;;;5.70;5.20;;;28.10;97.50;;;;;;5029197;28;20443;-63
2022/08/02 09:02:01;;;;;;;5.73;5.33;;;28.90;96.10;;;;;;5028700;28;20469;-63
2022/08/02 09:04:27;;;;;;;6.53;5.40;;;29.70;95.00;;;;;;5030722;28;20225;-62
2022/08/02 09:06:54;;;;;;;5.67;5.20;;;30.50;93.80;;;;;;5023781;28;20445;-64
2022/08/02 09:09:19;;;;;;;4.53;4.23;;;30.90;92.60;;;;;;5026137;28;20765;-64
2022/08/02 09:11:45;;;;;;;9.63;5.57;;;31.50;91.30;;;;;;5030106;28;20449;-64
2022/08/02 09:14:24;;;;;;;5.50;4.53;;;32.00;89.30;;;;;;5022575;28;20194;-64
2022/08/02 09:16:49;;;;;;;5.23;4.30;;;32.10;87.70;;;;;;5030436;28;20188;-63
2022/08/02 09:19:23;;;;;;;7.30;5.03;;;32.00;86.10;;;;;;5027572;28;20433;-64
2022/08/02 09:21:51;;;;;;;6.47;4.67;;;32.30;85.20;;;;;;5025865;28;20737;-64
2022/08/02 09:24:21;;;;;;;5.13;4.77;;;32.00;82.50;;;;;;5026063;28;20452;-64
2022/08/02 09:26:48;;;;;;;5.37;4.97;;;32.60;82.20;;;;;;5027631;28;20445;-63
2022/08/02 09:29:14;;;;;;;10.80;5.27;;;32.90;81.10;;;;;;5030235;28;20819;-64
2022/08/02 09:31:41;;;;;;;5.77;4.63;;;32.80;80.30;;;;;;5027938;28;20448;-63
2022/08/02 09:34:06;;;;;;;6.13;5.50;;;32.80;79.30;;;;;;5025628;28;20471;-63
2022/08/02 09:36:43;;;;;;;6.07;5.50;;;32.80;77.10;;;;;;5022297;28;20472;-63
2022/08/02 09:39:11;;;;;;;6.00;4.67;;;32.30;76.70;;;;;;5025725;28;20170;-63
2022/08/02 09:41:41;;;;;;;4.90;4.50;;;32.30;78.10;;;;;;5029842;28;20464;-63
2022/08/02 09:44:09;;;;;;;4.97;4.67;;;33.00;76.20;;;;;;5026601;28;20806;-63
2022/08/02 09:46:43;;;;;;;5.17;4.77;;;33.30;75.70;;;;;;5028066;28;20429;-63
2022/08/02 09:49:15;;;;;;;6.07;5.57;;;33.60;75.00;;;;;;5029740;28;20437;-63
2022/08/02 09:51:45;;;;;;;5.53;5.03;;;34.00;72.40;;;;;;5008385;28;20981;-62
2022/08/02 09:54:16;;;;;;;4.77;4.33;;;33.70;72.10;;;;;;5029802;28;20437;-63
2022/08/02 09:56:55;;;;;;;5.37;4.97;;;33.40;71.80;;;;;;5030330;28;20520;-63
2022/08/02 09:59:23;;;;;;;5.80;5.40;;;33.60;72.30;;;;;;5030434;28;20527;-63
2022/08/02 10:01:50;;;;;;;6.43;5.80;;;33.60;71.60;;;;;;5027099;28;20456;-63
2022/08/02 10:04:20;;;;;;;5.43;4.93;;;33.80;70.90;;;;;;5028605;28;20452;-63
2022/08/02 10:06:45;;;;;;;5.83;5.10;;;34.00;69.40;;;;;;5029085;28;20467;-63
2022/08/02 10:09:12;;;;;;;5.37;4.97;;;34.60;67.60;;;;;;5028426;28;20460;-63
2022/08/02 10:11:38;;;;;;;5.70;5.07;;;34.80;65.90;;;;;;5029668;28;20182;-63
2022/08/02 10:14:06;;;;;;;5.63;4.80;;;34.80;64.60;;;;;;5024105;28;20433;-63
2022/08/02 10:16:36;;;;;;;5.57;5.17;;;33.20;66.80;;;;;;5029471;28;20519;-63
2022/08/02 10:19:03;;;;;;;4.80;4.50;;;32.90;68.80;;;;;;5021061;28;20437;-63
2022/08/02 10:22:03;;;;;;;4.90;4.60;;;32.90;68.60;;;;;;5029961;28;20540;-63
2022/08/02 10:24:32;;;;;;;5.63;5.20;;;33.60;66.50;;;;;;5008797;28;20460;-63
2022/08/02 10:26:58;;;;;;;4.60;4.30;;;34.50;64.00;;;;;;5016657;28;20946;-63
2022/08/02 10:29:37;;;;;;;4.80;4.40;;;34.70;62.30;;;;;;5011580;28;20456;-63
2022/08/02 10:32:19;;;;;;;5.17;4.87;;;34.20;63.50;;;;;;5012077;28;20441;-63
2022/08/02 10:34:59;;;;;;;5.90;5.30;;;33.40;64.20;;;;;;5011853;28;20458;-63
2022/08/02 10:37:31;;;;;;;5.30;4.90;;;32.40;65.90;;;;;;5014027;28;20421;-63
2022/08/02 10:39:57;;;;;;;5.50;5.10;;;32.00;67.20;;;;;;5015502;28;20940;-63
2022/08/02 10:42:47;;;;;;;6.43;5.93;;;31.50;68.10;;;;;;5015777;28;20485;-63
2022/08/02 10:45:15;;;;;;;6.53;4.27;;;31.10;70.30;;;;;;5010637;28;20460;-63
2022/08/02 10:48:06;;;;;;;5.37;4.87;;;30.90;70.20;;;;;;5015838;28;20918;-63
2022/08/02 10:50:44;;;;;;;5.80;5.30;;;30.80;70.30;;;;;;5015582;28;20789;-63
2022/08/02 10:53:26;;;;;;;4.87;4.50;;;32.00;69.30;;;;;;5015777;28;20576;-63
2022/08/02 10:55:54;;;;;;;6.33;5.03;;;34.90;63.90;;;;;;5015625;28;20437;-63
2022/08/02 10:58:26;;;;;;;4.90;4.50;;;36.60;59.10;;;;;;5014977;28;20413;-63
2022/08/02 11:00:52;;;;;;;5.60;5.10;;;35.90;58.20;;;;;;5015578;28;20458;-63
2022/08/02 11:03:27;;;;;;;6.03;5.60;;;35.00;58.90;;;;;;5015638;28;20421;-63
2022/08/02 11:06:10;;;;;;;6.20;5.70;;;33.80;59.90;;;;;;5015411;28;20490;-63
2022/08/02 11:08:36;;;;;;;5.50;5.13;;;33.10;61.90;;;;;;5014832;28;20428;-63
2022/08/02 11:11:08;;;;;;;5.23;4.93;;;32.60;63.00;;;;;;5015320;28;20426;-63
2022/08/02 11:14:00;;;;;;;5.27;4.77;;;32.70;63.80;;;;;;5015318;28;20218;-63
2022/08/02 11:16:54;;;;;;;5.27;4.77;;;32.90;62.80;;;;;;5015230;28;20432;-63
2022/08/02 11:19:20;;;;;;;4.97;4.67;;;34.10;60.10;;;;;;5014802;28;20453;-63
2022/08/02 11:22:09;;;;;;;4.97;4.57;;;34.60;58.50;;;;;;5015184;28;20457;-63
2022/08/02 11:24:38;;;;;;;6.03;5.63;;;35.90;57.80;;;;;;5014994;28;20429;-63
2022/08/02 11:27:06;;;;;;;5.20;4.83;;;36.30;55.50;;;;;;5015061;28;20421;-63
2022/08/02 11:29:43;;;;;;;4.30;3.90;;;38.90;53.80;;;;;;5021272;28;20801;-63
2022/08/02 11:32:16;;;;;;;4.10;3.90;;;41.20;49.50;;;;;;5030870;28;20444;-64
2022/08/02 11:34:42;;;;;;;4.33;4.03;;;43.10;44.70;;;;;;5029877;28;20483;-64
2022/08/02 11:37:08;;;;;;;5.13;4.73;;;42.90;43.30;;;;;;5032295;28;20821;-64
2022/08/02 11:39:33;;;;;;;4.40;4.20;;;43.30;42.30;;;;;;5029291;28;20445;-64
2022/08/02 11:41:59;;;;;;;4.10;3.90;;;44.00;41.10;;;;;;5026461;28;20201;-64
2022/08/02 11:44:37;;;;;;;4.33;4.00;;;43.40;39.60;;;;;;5033399;28;20205;-63
2022/08/02 11:47:03;;;;;;;4.37;3.97;;;42.90;39.70;;;;;;5033262;28;20448;-63
2022/08/02 11:49:29;;;;;;;5.20;4.90;;;43.60;38.40;;;;;;5013715;28;20949;-63
2022/08/02 11:52:05;;;;;;;5.03;4.73;;;42.60;38.20;;;;;;5032694;28;20223;-64
2022/08/02 11:54:35;;;;;;;4.03;3.73;;;40.70;39.20;;;;;;5032156;28;20297;-64
2022/08/02 11:57:19;;;;;;;4.43;4.23;;;40.90;40.30;;;;;;5032067;28;20900;-64
2022/08/02 11:59:47;;;;;;;3.93;3.73;;;42.40;39.20;;;;;;5031529;28;20491;-64
2022/08/02 12:02:15;;;;;;;4.70;4.30;;;43.00;38.40;;;;;;5032112;28;20467;-64
2022/08/02 12:04:40;;;;;;;4.53;4.23;;;42.70;38.40;;;;;;5032154;28;20460;-64
2022/08/02 12:07:07;;;;;;;5.30;4.80;;;42.10;39.10;;;;;;5032443;28;20918;-64
2022/08/02 12:09:35;;;;;;;4.50;4.20;;;42.70;38.80;;;;;;5031281;28;20182;-64
2022/08/02 12:12:01;;;;;;;5.03;4.17;;;44.10;37.50;;;;;;5031994;28;20532;-64
2022/08/02 12:14:29;;;;;;;4.17;3.97;;;44.40;36.90;;;;;;5011063;28;20518;-64
2022/08/02 12:19:41;;;;;;;4.60;4.20;;;45.50;35.50;;;;;;5029385;28;20506;-63
2022/08/02 12:22:07;;;;;;;4.63;4.33;;;44.90;35.30;;;;;;5028265;28;20527;-63
2022/08/02 12:24:33;;;;;;;4.77;4.37;;;42.90;36.50;;;;;;5026003;28;20540;-63
2022/08/02 12:26:59;;;;;;;5.13;4.83;;;39.60;38.60;;;;;;5029982;28;20428;-63
2022/08/02 12:29:35;;;;;;;4.00;3.70;;;38.00;40.30;;;;;;5031368;28;20596;-63
2022/08/02 12:32:01;;;;;;;4.20;3.90;;;39.00;40.30;;;;;;5031970;28;20200;-64
2022/08/02 12:34:28;;;;;;;5.17;4.77;;;39.50;38.50;;;;;;5032456;28;20557;-63
2022/08/02 12:37:08;;;;;;;5.30;4.90;;;39.00;39.80;;;;;;5029073;28;20436;-63
2022/08/02 12:39:43;;;;;;;4.73;4.37;;;39.80;39.80;;;;;;5020786;28;20433;-63
2022/08/02 12:42:10;;;;;;;4.40;4.00;;;41.90;38.40;;;;;;5027972;28;20467;-63
2022/08/02 12:44:48;;;;;;;4.90;4.70;;;43.30;37.00;;;;;;5029916;28;20543;-63
2022/08/02 12:47:13;;;;;;;4.83;4.47;;;40.40;37.80;;;;;;5027012;28;20574;-63
2022/08/02 12:49:39;;;;;;;5.47;5.17;;;38.40;40.60;;;;;;5029894;28;20846;-63
2022/08/02 12:52:18;;;;;;;4.77;4.43;;;40.30;39.30;;;;;;5031007;28;20911;-63
2022/08/02 12:54:44;;;;;;;4.97;4.47;;;41.60;38.40;;;;;;5031372;28;20206;-63
2022/08/02 12:57:12;;;;;;;4.57;4.27;;;42.80;37.30;;;;;;5026645;28;20930;-64
2022/08/02 12:59:39;;;;;;;4.23;4.03;;;43.90;36.10;;;;;;5030292;28;20243;-64